createdAt,value
2017-07-15T00:01:17.243Z,15.20
2017-07-15T00:03:44.734Z,15.10
2017-07-15T00:06:12.978Z,14.90
2017-07-15T00:08:40.475Z,14.90
2017-07-15T00:11:07.955Z,14.80
2017-07-15T00:13:35.452Z,14.80
2017-07-15T00:16:03.699Z,14.90
2017-07-15T00:18:31.203Z,14.90
2017-07-15T00:20:58.683Z,15.00
2017-07-15T00:23:26.193Z,15.00
2017-07-15T00:25:53.684Z,15.00
2017-07-15T00:28:21.169Z,15.00
2017-07-15T00:30:48.676Z,15.00
2017-07-15T00:33:16.160Z,14.90
2017-07-15T00:35:43.663Z,14.90
2017-07-15T00:38:11.909Z,14.80
2017-07-15T00:40:39.411Z,14.80
2017-07-15T00:43:06.891Z,14.70
2017-07-15T00:45:34.387Z,14.70
2017-07-15T00:48:01.873Z,14.70
2017-07-15T00:50:29.379Z,14.60
2017-07-15T00:52:56.875Z,14.70
2017-07-15T00:55:24.367Z,14.70
2017-07-15T00:57:52.642Z,14.60
2017-07-15T01:00:20.139Z,14.60
2017-07-15T01:02:48.405Z,14.60
2017-07-15T01:05:15.883Z,14.60
2017-07-15T01:07:43.388Z,14.50
2017-07-15T01:10:11.647Z,14.50
2017-07-15T01:12:39.139Z,14.50
2017-07-15T01:15:06.619Z,14.50
2017-07-15T01:17:34.892Z,14.50
2017-07-15T01:20:02.401Z,14.50
2017-07-15T01:22:30.661Z,14.40
2017-07-15T01:24:58.159Z,14.40
2017-07-15T01:27:25.655Z,14.60
2017-07-15T01:29:53.245Z,14.50
2017-07-15T01:32:20.738Z,14.60
2017-07-15T01:34:48.231Z,14.50
2017-07-15T01:37:15.704Z,14.40
2017-07-15T01:39:43.198Z,14.50
2017-07-15T01:42:10.686Z,14.40
2017-07-15T01:44:38.178Z,14.30
2017-07-15T01:47:06.419Z,14.60
2017-07-15T01:49:33.906Z,14.60
2017-07-15T01:52:01.388Z,14.60
2017-07-15T01:54:28.888Z,14.60
2017-07-15T01:56:57.139Z,14.70
2017-07-15T01:59:24.623Z,14.70
2017-07-15T02:01:52.099Z,14.70
2017-07-15T02:04:19.602Z,14.70
2017-07-15T02:06:47.861Z,14.70
2017-07-15T02:09:15.354Z,14.60
2017-07-15T02:11:42.835Z,14.60
2017-07-15T02:14:10.344Z,14.70
2017-07-15T02:16:37.819Z,14.60
2017-07-15T02:19:05.313Z,14.50
2017-07-15T02:21:32.802Z,14.40
2017-07-15T02:24:00.280Z,14.40
2017-07-15T02:26:27.774Z,14.30
2017-07-15T02:28:55.256Z,14.20
2017-07-15T02:31:22.742Z,14.20
2017-07-15T02:33:50.219Z,14.20
2017-07-15T02:36:17.705Z,14.20
2017-07-15T02:38:45.964Z,14.30
2017-07-15T02:41:13.470Z,14.30
2017-07-15T02:43:41.718Z,14.60
2017-07-15T02:46:09.223Z,14.50
2017-07-15T02:48:36.706Z,14.50
2017-07-15T02:51:04.207Z,14.50
2017-07-15T02:53:31.692Z,14.50
2017-07-15T02:55:59.189Z,14.50
2017-07-15T02:58:26.678Z,14.40
2017-07-15T03:00:54.173Z,14.30
2017-07-15T03:03:21.674Z,14.30
2017-07-15T03:05:49.918Z,14.50
2017-07-15T03:08:17.420Z,14.50
2017-07-15T03:10:44.904Z,14.50
2017-07-15T03:13:12.407Z,14.40
2017-07-15T03:15:39.890Z,14.40
2017-07-15T03:18:07.390Z,14.30
2017-07-15T03:20:34.870Z,14.20
2017-07-15T03:23:02.377Z,14.20
2017-07-15T03:25:29.859Z,14.30
2017-07-15T03:27:58.128Z,14.50
2017-07-15T03:30:25.607Z,14.40
2017-07-15T03:32:53.119Z,14.40
2017-07-15T03:35:20.599Z,14.50
2017-07-15T03:37:48.102Z,14.50
2017-07-15T03:40:15.594Z,14.50
2017-07-15T03:42:43.079Z,14.50
2017-07-15T03:45:10.571Z,14.50
2017-07-15T03:47:38.069Z,14.50
2017-07-15T03:50:06.335Z,14.50
2017-07-15T03:52:33.814Z,14.50
2017-07-15T03:55:01.302Z,14.60
2017-07-15T03:57:29.564Z,14.60
2017-07-15T03:59:57.064Z,14.60
2017-07-15T04:02:25.317Z,14.70
2017-07-15T04:04:52.824Z,14.60
2017-07-15T04:07:20.310Z,14.60
2017-07-15T04:09:47.799Z,14.50
2017-07-15T04:12:16.046Z,14.40
2017-07-15T04:14:43.568Z,14.40
2017-07-15T04:17:11.816Z,14.40
2017-07-15T04:19:39.316Z,14.40
2017-07-15T04:22:07.586Z,14.40
2017-07-15T04:24:35.068Z,14.40
2017-07-15T04:27:02.575Z,14.40
2017-07-15T04:29:30.828Z,14.40
2017-07-15T04:31:58.354Z,14.30
2017-07-15T04:34:26.613Z,14.60
2017-07-15T04:36:54.122Z,14.60
2017-07-15T04:39:22.374Z,14.80
2017-07-15T04:41:49.880Z,14.80
2017-07-15T04:44:17.360Z,14.80
2017-07-15T04:46:45.631Z,14.80
2017-07-15T04:49:13.128Z,14.80
2017-07-15T04:51:41.383Z,15.10
2017-07-15T04:54:08.903Z,15.10
2017-07-15T04:56:37.153Z,15.10
2017-07-15T04:59:04.651Z,15.00
2017-07-15T05:01:32.127Z,15.20
2017-07-15T05:03:59.627Z,15.30
2017-07-15T05:06:27.878Z,15.50
2017-07-15T05:08:55.406Z,15.50
2017-07-15T05:11:22.879Z,15.60
2017-07-15T05:13:50.387Z,15.60
2017-07-15T05:16:17.864Z,15.50
2017-07-15T05:18:45.371Z,15.40
2017-07-15T05:21:12.868Z,15.40
2017-07-15T05:23:40.346Z,15.50
2017-07-15T05:26:07.838Z,15.60
2017-07-15T05:28:35.336Z,15.60
2017-07-15T05:31:02.848Z,15.60
2017-07-15T05:33:30.352Z,15.50
2017-07-15T05:35:57.843Z,15.50
2017-07-15T05:38:25.349Z,15.60
2017-07-15T05:40:52.852Z,15.80
2017-07-15T05:43:20.333Z,15.70
2017-07-15T05:45:48.598Z,15.60
2017-07-15T05:48:16.081Z,15.60
2017-07-15T05:50:43.587Z,15.60
2017-07-15T05:53:11.132Z,15.30
2017-07-15T05:55:38.637Z,15.30
2017-07-15T05:58:06.890Z,15.60
2017-07-15T06:00:34.377Z,15.60
2017-07-15T06:03:01.867Z,15.80
2017-07-15T06:05:29.415Z,16.20
2017-07-15T06:07:56.909Z,16.40
2017-07-15T06:10:24.399Z,16.80
2017-07-15T06:12:51.891Z,16.70
2017-07-15T06:15:20.138Z,17.20
2017-07-15T06:17:47.637Z,17.20
2017-07-15T06:20:15.120Z,17.00
2017-07-15T06:22:42.614Z,17.50
2017-07-15T06:25:10.091Z,17.70
2017-07-15T06:27:37.603Z,17.50
2017-07-15T06:30:05.084Z,17.30
2017-07-15T06:32:32.583Z,17.00
2017-07-15T06:35:00.071Z,16.80
2017-07-15T06:37:27.577Z,16.90
2017-07-15T06:39:55.061Z,16.70
2017-07-15T06:42:22.556Z,16.30
2017-07-15T06:44:50.062Z,16.20
2017-07-15T06:47:17.547Z,16.40
2017-07-15T06:49:45.039Z,16.60
2017-07-15T06:52:13.280Z,16.70
2017-07-15T06:54:40.775Z,16.70
2017-07-15T06:57:08.254Z,16.80
2017-07-15T06:59:35.778Z,16.90
2017-07-15T07:02:03.254Z,17.00
2017-07-15T07:04:30.755Z,16.70
2017-07-15T07:06:58.236Z,16.60
2017-07-15T07:09:25.730Z,16.60
2017-07-15T07:11:53.212Z,16.60
2017-07-15T07:14:20.693Z,16.60
2017-07-15T07:16:48.191Z,16.50
2017-07-15T07:19:15.696Z,16.50
2017-07-15T07:21:43.196Z,16.50
2017-07-15T07:24:10.686Z,16.40
2017-07-15T07:26:38.188Z,16.50
2017-07-15T07:29:06.436Z,16.60
2017-07-15T07:31:33.941Z,16.60
2017-07-15T07:34:01.435Z,16.70
2017-07-15T07:36:28.936Z,16.80
2017-07-15T07:38:56.419Z,17.10
2017-07-15T07:41:23.940Z,17.50
2017-07-15T07:43:51.434Z,18.00
2017-07-15T07:46:18.947Z,18.20
2017-07-15T07:48:46.456Z,18.80
2017-07-15T07:51:13.935Z,18.50
2017-07-15T07:53:41.445Z,18.60
2017-07-15T07:56:09.682Z,19.90
2017-07-15T07:58:37.175Z,19.90
2017-07-15T08:01:04.650Z,20.00
2017-07-15T08:03:32.140Z,21.00
2017-07-15T08:05:59.611Z,22.50
2017-07-15T08:08:27.108Z,23.60
2017-07-15T08:10:55.350Z,23.90
2017-07-15T08:13:22.852Z,23.90
2017-07-15T08:15:50.326Z,22.70
2017-07-15T08:18:17.819Z,21.30
2017-07-15T08:20:45.305Z,21.20
2017-07-15T08:23:12.794Z,20.30
2017-07-15T08:25:40.279Z,20.00
2017-07-15T08:28:07.779Z,19.80
2017-07-15T08:30:35.273Z,19.40
2017-07-15T08:33:02.754Z,18.60
2017-07-15T08:35:30.265Z,18.20
2017-07-15T08:37:57.751Z,18.30
2017-07-15T08:40:25.260Z,18.40
2017-07-15T08:42:52.735Z,18.30
2017-07-15T08:45:20.241Z,18.60
2017-07-15T08:47:47.735Z,18.50
2017-07-15T08:50:15.229Z,18.80
2017-07-15T08:52:42.714Z,18.90
2017-07-15T08:55:10.243Z,19.80
2017-07-15T08:57:37.725Z,20.80
2017-07-15T09:00:05.986Z,22.40
2017-07-15T09:02:33.482Z,22.40
2017-07-15T09:05:00.963Z,24.10
2017-07-15T09:07:29.239Z,24.70
2017-07-15T09:09:56.715Z,24.70
2017-07-15T09:12:24.207Z,23.10
2017-07-15T09:14:52.453Z,21.50
2017-07-15T09:17:19.971Z,21.50
2017-07-15T09:19:47.449Z,21.00
2017-07-15T09:22:14.963Z,20.90
2017-07-15T09:24:42.443Z,21.00
2017-07-15T09:27:09.927Z,21.70
2017-07-15T09:29:37.403Z,22.70
2017-07-15T09:32:04.908Z,23.30
2017-07-15T09:34:32.380Z,22.80
2017-07-15T09:36:59.863Z,22.00
2017-07-15T09:39:27.336Z,20.90
2017-07-15T09:41:54.831Z,21.20
2017-07-15T09:44:22.303Z,21.10
2017-07-15T09:46:49.775Z,20.40
2017-07-15T09:49:17.281Z,20.00
2017-07-15T09:51:44.758Z,19.70
2017-07-15T09:54:12.243Z,19.70
2017-07-15T09:56:39.724Z,20.20
2017-07-15T09:59:07.221Z,20.50
2017-07-15T10:01:34.694Z,21.00
2017-07-15T10:04:02.182Z,21.20
2017-07-15T10:06:29.656Z,21.00
2017-07-15T10:08:57.159Z,20.70
2017-07-15T10:11:24.651Z,20.20
2017-07-15T10:13:52.187Z,20.00
2017-07-15T10:16:19.667Z,19.80
2017-07-15T10:18:47.159Z,19.30
2017-07-15T10:21:14.644Z,19.30
2017-07-15T10:23:42.141Z,19.20
2017-07-15T10:26:09.624Z,18.70
2017-07-15T10:28:37.122Z,18.60
2017-07-15T10:31:04.591Z,18.40
2017-07-15T10:33:32.087Z,18.50
2017-07-15T10:35:59.575Z,18.60
2017-07-15T10:38:27.068Z,18.90
2017-07-15T10:40:54.542Z,19.10
2017-07-15T10:43:22.799Z,19.10
2017-07-15T10:45:50.286Z,19.10
2017-07-15T10:48:17.764Z,19.30
2017-07-15T10:50:45.270Z,19.60
2017-07-15T10:53:13.523Z,19.60
2017-07-15T10:55:41.791Z,19.80
2017-07-15T10:58:09.276Z,19.80
2017-07-15T11:00:36.777Z,19.90
2017-07-15T11:03:04.260Z,20.20
2017-07-15T11:05:31.758Z,20.40
2017-07-15T11:07:59.244Z,20.50
2017-07-15T11:10:26.749Z,20.30
2017-07-15T11:12:54.224Z,20.50
2017-07-15T11:15:21.724Z,20.30
2017-07-15T11:17:49.208Z,19.90
2017-07-15T11:20:16.699Z,19.50
2017-07-15T11:22:44.947Z,19.10
2017-07-15T11:25:12.442Z,19.10
2017-07-15T11:27:39.929Z,19.00
2017-07-15T11:30:07.432Z,18.90
2017-07-15T11:32:34.918Z,18.90
2017-07-15T11:35:02.434Z,18.90
2017-07-15T11:37:29.918Z,18.90
2017-07-15T11:39:57.411Z,18.90
2017-07-15T11:42:24.892Z,18.90
2017-07-15T11:44:52.386Z,19.30
2017-07-15T11:47:19.867Z,19.50
2017-07-15T11:49:47.374Z,19.40
2017-07-15T11:52:14.870Z,19.50
2017-07-15T11:54:42.355Z,19.60
2017-07-15T11:57:09.857Z,19.80
2017-07-15T11:59:37.335Z,19.70
2017-07-15T12:02:05.592Z,20.00
2017-07-15T12:04:33.070Z,20.00
2017-07-15T12:07:00.597Z,20.20
2017-07-15T12:09:28.095Z,20.10
2017-07-15T12:11:55.589Z,20.00
2017-07-15T12:14:23.064Z,20.00
2017-07-15T12:16:50.565Z,19.90
2017-07-15T12:19:18.816Z,19.50
2017-07-15T12:21:46.312Z,19.50
2017-07-15T12:24:13.786Z,19.50
2017-07-15T12:26:41.264Z,19.50
2017-07-15T12:29:08.764Z,19.60
2017-07-15T12:31:36.246Z,19.70
2017-07-15T12:34:03.741Z,19.60
2017-07-15T12:36:31.224Z,19.40
2017-07-15T12:38:58.717Z,19.50
2017-07-15T12:41:26.206Z,19.60
2017-07-15T12:43:53.715Z,19.60
2017-07-15T12:46:21.196Z,19.30
2017-07-15T12:48:48.736Z,19.30
2017-07-15T12:51:16.223Z,19.40
2017-07-15T12:53:43.726Z,19.10
2017-07-15T12:56:11.199Z,19.30
2017-07-15T12:58:38.715Z,19.50
2017-07-15T13:01:06.193Z,19.70
2017-07-15T13:03:33.679Z,20.00
2017-07-15T13:06:01.179Z,21.10
2017-07-15T13:08:28.658Z,22.30
2017-07-15T13:10:56.283Z,22.80
2017-07-15T13:13:23.756Z,22.80
2017-07-15T13:15:51.264Z,22.90
2017-07-15T13:18:18.731Z,22.60
2017-07-15T13:20:46.239Z,22.70
2017-07-15T13:23:13.708Z,22.60
2017-07-15T13:25:41.204Z,22.10
2017-07-15T13:28:08.687Z,22.20
2017-07-15T13:30:36.174Z,21.40
2017-07-15T13:33:04.410Z,21.10
2017-07-15T13:35:31.896Z,21.10
2017-07-15T13:37:59.387Z,21.30
2017-07-15T13:40:26.862Z,21.30
2017-07-15T13:42:54.351Z,21.20
2017-07-15T13:45:21.830Z,21.20
2017-07-15T13:47:49.319Z,21.10
2017-07-15T13:50:17.556Z,21.00
2017-07-15T13:52:45.047Z,21.00
2017-07-15T13:55:12.520Z,21.00
2017-07-15T13:57:40.016Z,21.10
2017-07-15T14:00:07.503Z,21.20
2017-07-15T14:02:34.986Z,21.20
2017-07-15T14:05:02.462Z,21.30
2017-07-15T14:07:30.734Z,20.80
2017-07-15T14:09:58.227Z,20.80
2017-07-15T14:12:25.722Z,20.50
2017-07-15T14:14:53.204Z,20.60
2017-07-15T14:17:20.706Z,20.80
2017-07-15T14:19:48.186Z,21.10
2017-07-15T14:22:15.694Z,21.20
2017-07-15T14:24:43.175Z,21.20
2017-07-15T14:27:10.647Z,21.50
2017-07-15T14:29:38.141Z,21.90
2017-07-15T14:32:06.387Z,21.90
2017-07-15T14:34:33.891Z,21.80
2017-07-15T14:37:01.367Z,22.20
2017-07-15T14:39:28.891Z,22.10
2017-07-15T14:41:56.363Z,22.60
2017-07-15T14:44:23.856Z,22.50
2017-07-15T14:46:51.334Z,22.80
2017-07-15T14:49:18.831Z,22.90
2017-07-15T14:51:46.315Z,22.90
2017-07-15T14:54:13.930Z,23.40
2017-07-15T14:56:41.398Z,23.60
2017-07-15T14:59:08.878Z,23.90
2017-07-15T15:01:36.369Z,23.70
2017-07-15T15:04:03.843Z,23.30
2017-07-15T15:06:31.338Z,23.00
2017-07-15T15:08:58.825Z,22.60
2017-07-15T15:11:26.322Z,22.40
2017-07-15T15:13:53.796Z,22.50
2017-07-15T15:16:21.291Z,22.60
2017-07-15T15:18:49.532Z,22.70
2017-07-15T15:21:17.042Z,22.70
2017-07-15T15:23:44.521Z,22.70
2017-07-15T15:26:12.017Z,22.50
2017-07-15T15:28:40.260Z,22.10
2017-07-15T15:31:07.795Z,22.10
2017-07-15T15:33:35.270Z,22.20
2017-07-15T15:36:02.770Z,22.10
2017-07-15T15:38:30.246Z,21.90
2017-07-15T15:40:57.755Z,21.80
2017-07-15T15:43:25.235Z,21.80
2017-07-15T15:45:52.726Z,21.90
2017-07-15T15:48:20.232Z,22.10
2017-07-15T15:50:47.958Z,22.10
2017-07-15T15:53:15.473Z,22.30
2017-07-15T15:55:42.970Z,22.40
2017-07-15T15:58:10.484Z,22.10
2017-07-15T16:00:37.985Z,22.10
2017-07-15T16:03:05.485Z,22.20
2017-07-15T16:05:32.974Z,22.10
2017-07-15T16:08:00.500Z,22.00
2017-07-15T16:10:27.980Z,22.10
2017-07-15T16:12:55.474Z,22.20
2017-07-15T16:15:22.983Z,22.10
2017-07-15T16:17:50.488Z,22.10
2017-07-15T16:20:17.990Z,22.30
2017-07-15T16:22:45.470Z,22.30
2017-07-15T16:25:12.983Z,22.10
2017-07-15T16:27:40.479Z,22.10
2017-07-15T16:30:07.993Z,22.00
2017-07-15T16:32:35.498Z,22.20
2017-07-15T16:35:03.012Z,22.30
2017-07-15T16:37:30.509Z,22.30
2017-07-15T16:39:58.017Z,22.30
2017-07-15T16:42:25.507Z,22.20
2017-07-15T16:44:53.013Z,22.00
2017-07-15T16:47:20.496Z,21.90
2017-07-15T16:49:48.001Z,21.90
2017-07-15T16:52:15.475Z,21.80
2017-07-15T16:54:42.972Z,21.80
2017-07-15T16:57:11.207Z,21.90
2017-07-15T16:59:38.702Z,21.90
2017-07-15T17:02:06.192Z,21.90
2017-07-15T17:04:33.672Z,21.80
2017-07-15T17:07:01.169Z,21.80
2017-07-15T17:09:28.652Z,22.00
2017-07-15T17:11:56.152Z,22.00
2017-07-15T17:14:23.623Z,22.00
2017-07-15T17:16:51.124Z,22.10
2017-07-15T17:19:19.432Z,22.20
2017-07-15T17:21:46.928Z,22.10
2017-07-15T17:24:15.170Z,21.70
2017-07-15T17:26:42.690Z,21.70
2017-07-15T17:29:10.160Z,21.60
2017-07-15T17:31:37.641Z,21.70
2017-07-15T17:34:05.899Z,21.50
2017-07-15T17:36:33.382Z,21.50
2017-07-15T17:39:00.880Z,21.30
2017-07-15T17:41:28.359Z,21.30
2017-07-15T17:43:55.853Z,21.30
2017-07-15T17:46:23.334Z,21.50
2017-07-15T17:48:50.851Z,21.50
2017-07-15T17:51:18.327Z,21.50
2017-07-15T17:53:45.815Z,21.60
2017-07-15T17:56:13.299Z,21.50
2017-07-15T17:58:40.799Z,21.40
2017-07-15T18:01:08.278Z,21.30
2017-07-15T18:03:35.790Z,21.40
2017-07-15T18:06:03.277Z,21.40
2017-07-15T18:08:30.787Z,21.60
2017-07-15T18:10:58.281Z,21.40
2017-07-15T18:13:25.870Z,21.30
2017-07-15T18:15:53.388Z,21.30
2017-07-15T18:18:20.890Z,21.20
2017-07-15T18:20:48.412Z,21.10
2017-07-15T18:23:15.906Z,21.10
2017-07-15T18:25:43.423Z,21.10
2017-07-15T18:28:10.909Z,21.00
2017-07-15T18:30:38.417Z,20.90
2017-07-15T18:33:05.921Z,20.90
2017-07-15T18:35:33.448Z,20.80
2017-07-15T18:38:00.939Z,20.80
2017-07-15T18:40:28.463Z,20.90
2017-07-15T18:42:55.982Z,20.90
2017-07-15T18:45:23.491Z,20.80
2017-07-15T18:47:50.973Z,20.70
2017-07-15T18:50:18.458Z,20.60
2017-07-15T18:52:45.960Z,20.50
2017-07-15T18:55:13.443Z,20.40
2017-07-15T18:57:40.960Z,20.30
2017-07-15T19:00:08.439Z,20.20
2017-07-15T19:02:35.932Z,20.10
2017-07-15T19:05:03.410Z,19.90
2017-07-15T19:07:30.926Z,19.90
2017-07-15T19:09:59.172Z,19.80
2017-07-15T19:12:26.672Z,19.80
2017-07-15T19:14:54.151Z,19.70
2017-07-15T19:17:21.674Z,19.50
2017-07-15T19:19:49.155Z,19.40
2017-07-15T19:22:16.651Z,19.40
2017-07-15T19:24:44.131Z,19.20
2017-07-15T19:27:11.631Z,19.10
2017-07-15T19:29:39.107Z,19.10
2017-07-15T19:32:06.617Z,19.00
2017-07-15T19:34:34.096Z,19.00
2017-07-15T19:37:01.595Z,19.00
2017-07-15T19:39:29.083Z,18.90
2017-07-15T19:41:56.596Z,18.90
2017-07-15T19:44:24.835Z,18.80
2017-07-15T19:46:52.319Z,18.80
2017-07-15T19:49:19.827Z,18.80
2017-07-15T19:51:48.091Z,18.80
2017-07-15T19:54:15.595Z,18.70
2017-07-15T19:56:43.074Z,18.60
2017-07-15T19:59:10.581Z,18.60
2017-07-15T20:01:38.063Z,18.50
2017-07-15T20:04:05.563Z,18.60
2017-07-15T20:06:33.041Z,18.40
2017-07-15T20:09:00.546Z,18.40
2017-07-15T20:11:28.023Z,18.20
2017-07-15T20:13:55.538Z,18.10
2017-07-15T20:16:23.022Z,18.20
2017-07-15T20:18:50.518Z,18.20
2017-07-15T20:21:17.998Z,18.10
2017-07-15T20:23:45.498Z,18.10
2017-07-15T20:26:13.747Z,18.00
2017-07-15T20:28:41.263Z,18.00
2017-07-15T20:31:08.747Z,18.00
2017-07-15T20:33:37.009Z,17.70
2017-07-15T20:36:10.195Z,17.70
2017-07-15T20:38:37.695Z,17.80
2017-07-15T20:41:05.184Z,17.80
2017-07-15T20:43:32.673Z,18.00
2017-07-15T20:46:00.934Z,18.00
2017-07-15T20:48:28.411Z,18.00
2017-07-15T20:50:55.907Z,18.00
2017-07-15T20:53:45.000Z,17.90
2017-07-15T20:56:12.495Z,17.80
2017-07-15T20:58:39.978Z,17.90
2017-07-15T21:01:07.482Z,17.80
2017-07-15T21:03:34.956Z,17.80
2017-07-15T21:06:02.455Z,17.80
2017-07-15T21:08:29.931Z,17.80
2017-07-15T21:10:57.429Z,17.70
2017-07-15T21:13:24.908Z,17.60
2017-07-15T21:15:52.403Z,17.40
2017-07-15T21:18:19.883Z,17.50
2017-07-15T21:20:47.391Z,17.30
2017-07-15T21:23:14.877Z,17.40
2017-07-15T21:25:42.365Z,17.40
2017-07-15T21:28:10.617Z,17.30
2017-07-15T21:30:38.131Z,17.30
2017-07-15T21:33:05.615Z,17.30
2017-07-15T21:35:33.889Z,17.30
2017-07-15T21:38:01.371Z,17.20
2017-07-15T21:40:28.852Z,17.40
2017-07-15T21:42:56.347Z,17.30
2017-07-15T21:45:23.819Z,17.40
2017-07-15T21:47:52.087Z,17.30
2017-07-15T21:50:19.570Z,17.30
2017-07-15T21:52:47.068Z,17.40
2017-07-15T21:55:14.544Z,17.40
2017-07-15T21:57:42.055Z,17.30
2017-07-15T22:00:09.532Z,17.20
2017-07-15T22:02:37.032Z,17.10
2017-07-15T22:05:04.584Z,17.00
2017-07-15T22:07:32.123Z,17.20
2017-07-15T22:09:59.657Z,17.30
2017-07-15T22:12:27.198Z,17.30
2017-07-15T22:17:28.479Z,17.30
2017-07-15T22:19:55.967Z,17.20
2017-07-15T22:22:23.443Z,17.10
2017-07-15T22:24:50.942Z,17.20
2017-07-15T22:27:18.444Z,17.10
2017-07-15T22:29:45.947Z,17.10
2017-07-15T22:32:13.427Z,17.00
2017-07-15T22:34:40.919Z,16.90
2017-07-15T22:37:08.593Z,16.80
2017-07-15T22:39:36.099Z,16.90
2017-07-15T22:42:03.586Z,16.90
2017-07-15T22:44:31.091Z,16.90
2017-07-15T22:46:58.597Z,16.90
2017-07-15T22:49:26.107Z,16.90
2017-07-15T22:51:53.605Z,17.00
2017-07-15T22:54:21.122Z,17.00
2017-07-15T22:56:48.607Z,17.10
2017-07-15T22:59:16.118Z,17.20
2017-07-15T23:01:43.637Z,17.30
2017-07-15T23:04:11.155Z,17.30
2017-07-15T23:06:38.645Z,17.40
2017-07-15T23:09:06.145Z,17.30
2017-07-15T23:11:33.653Z,17.40
2017-07-15T23:14:01.147Z,17.30
2017-07-15T23:16:28.672Z,17.30
2017-07-15T23:18:56.388Z,17.50
2017-07-15T23:21:23.982Z,17.40
2017-07-15T23:23:51.487Z,17.30
2017-07-15T23:26:19.019Z,17.30
2017-07-15T23:28:46.523Z,17.40
2017-07-15T23:31:14.038Z,17.40
2017-07-15T23:33:41.542Z,17.20
2017-07-15T23:36:09.066Z,17.10
2017-07-15T23:38:36.559Z,17.00
2017-07-15T23:41:04.062Z,17.20
2017-07-15T23:43:31.563Z,17.30
2017-07-15T23:45:59.041Z,17.40
2017-07-15T23:48:26.606Z,17.30
2017-07-15T23:50:54.082Z,17.40
2017-07-15T23:53:21.585Z,17.50
2017-07-15T23:55:49.063Z,17.40
2017-07-15T23:58:16.561Z,17.50
